createdAt,value
2023-01-18T00:00:20.164Z,97670.31
2023-01-18T00:02:49.403Z,97666.22
2023-01-18T00:05:17.466Z,97669.91
2023-01-18T00:07:46.609Z,97661.84
2023-01-18T00:10:14.782Z,97669.06
2023-01-18T00:12:42.578Z,97670.28
2023-01-18T00:15:11.760Z,97668.47
2023-01-18T00:17:47.645Z,97669.22
2023-01-18T00:20:16.222Z,97663.44
2023-01-18T00:22:45.702Z,97669.38
2023-01-18T00:25:13.552Z,97670.44
2023-01-18T00:27:45.347Z,97663.94
2023-01-18T00:30:14.446Z,97662.34
2023-01-18T00:32:42.348Z,97666.38
2023-01-18T00:35:10.984Z,97663.88
2023-01-18T00:37:38.960Z,97663.94
2023-01-18T00:40:09.992Z,97665.59
2023-01-18T00:42:55.753Z,97664.28
2023-01-18T00:45:23.750Z,97670.09
2023-01-18T00:47:52.028Z,97665.44
2023-01-18T00:50:20.879Z,97664.53
2023-01-18T00:52:48.950Z,97665.16
2023-01-18T00:55:18.628Z,97669.81
2023-01-18T00:57:46.357Z,97673.50
2023-01-18T01:00:15.583Z,97678.69
2023-01-18T01:02:43.991Z,97674.75
2023-01-18T01:05:35.682Z,97683.13
2023-01-18T01:08:04.648Z,97682.59
2023-01-18T01:10:34.565Z,97676.63
2023-01-18T01:13:20.662Z,97679.88
2023-01-18T01:16:06.066Z,97682.53
2023-01-18T01:18:51.368Z,97673.94
2023-01-18T01:21:37.152Z,97679.28
2023-01-18T01:24:22.998Z,97690.94
2023-01-18T01:26:52.446Z,97685.22
2023-01-18T01:29:20.449Z,97696.56
2023-01-18T01:31:48.295Z,97699.59
2023-01-18T01:34:15.988Z,97699.88
2023-01-18T01:36:43.673Z,97703.75
2023-01-18T01:39:11.849Z,97709.38
2023-01-18T01:41:39.615Z,97715.31
2023-01-18T01:44:40.524Z,97712.47
2023-01-18T01:47:14.827Z,97722.31
2023-01-18T01:49:46.023Z,97723.88
2023-01-18T01:52:16.747Z,97727.34
2023-01-18T01:54:51.016Z,97727.53
2023-01-18T01:57:22.787Z,97731.28
2023-01-18T01:59:55.789Z,97737.78
2023-01-18T02:02:24.913Z,97745.91
2023-01-18T02:04:55.479Z,97747.63
2023-01-18T02:07:26.550Z,97755.34
2023-01-18T02:09:55.632Z,97752.09
2023-01-18T02:12:23.497Z,97755.44
2023-01-18T02:14:51.258Z,97758.75
2023-01-18T02:17:35.296Z,97761.16
2023-01-18T02:20:40.695Z,97767.06
2023-01-18T02:23:35.053Z,97770.56
2023-01-18T02:26:38.434Z,97769.88
2023-01-18T02:29:16.059Z,97770.00
2023-01-18T02:31:54.943Z,97776.66
2023-01-18T02:34:31.589Z,97781.72
2023-01-18T02:37:07.282Z,97787.88
2023-01-18T02:39:47.151Z,97787.72
2023-01-18T02:42:37.982Z,97781.50
2023-01-18T02:45:35.971Z,97785.34
2023-01-18T02:48:04.857Z,97784.25
2023-01-18T02:50:32.655Z,97786.19
2023-01-18T02:53:00.514Z,97782.53
2023-01-18T02:55:37.052Z,97791.09
2023-01-18T02:58:12.556Z,97792.28
2023-01-18T03:00:45.304Z,97800.72
2023-01-18T03:03:14.832Z,97789.38
2023-01-18T03:05:44.720Z,97793.53
2023-01-18T03:08:19.703Z,97797.47
2023-01-18T03:10:58.908Z,97804.53
2023-01-18T03:13:35.234Z,97804.19
2023-01-18T03:16:10.610Z,97808.56
2023-01-18T03:19:01.249Z,97810.81
2023-01-18T03:21:39.945Z,97814.22
2023-01-18T03:24:09.388Z,97811.44
2023-01-18T03:26:41.222Z,97817.19
2023-01-18T03:29:28.094Z,97821.34
2023-01-18T03:32:19.834Z,97818.91
2023-01-18T03:34:53.350Z,97816.91
2023-01-18T03:37:27.269Z,97819.53
2023-01-18T03:39:59.160Z,97828.19
2023-01-18T03:42:32.616Z,97831.56
2023-01-18T03:45:07.968Z,97840.47
2023-01-18T03:47:37.888Z,97842.28
2023-01-18T03:50:06.558Z,97841.53
2023-01-18T03:52:41.696Z,97844.91
2023-01-18T03:55:16.710Z,97859.34
2023-01-18T03:57:48.014Z,97845.75
2023-01-18T04:00:17.116Z,97860.06
2023-01-18T04:02:47.978Z,97861.19
2023-01-18T04:05:16.618Z,97856.81
2023-01-18T04:07:44.570Z,97873.88
2023-01-18T04:10:13.000Z,97878.34
2023-01-18T04:12:40.768Z,97889.22
2023-01-18T04:15:09.916Z,97884.22
2023-01-18T04:17:37.782Z,97892.97
2023-01-18T04:20:08.361Z,97888.19
2023-01-18T04:22:36.285Z,97886.66
2023-01-18T04:25:04.081Z,97892.06
2023-01-18T04:27:31.767Z,97891.50
2023-01-18T04:30:00.714Z,97895.09
2023-01-18T04:32:28.863Z,97902.91
2023-01-18T04:34:56.601Z,97904.03
2023-01-18T04:37:30.426Z,97907.63
2023-01-18T04:39:58.405Z,97911.22
2023-01-18T04:42:26.194Z,97920.25
2023-01-18T04:44:54.306Z,97917.31
2023-01-18T04:47:22.141Z,97914.00
2023-01-18T04:49:49.958Z,97916.91
2023-01-18T04:52:19.216Z,97925.81
2023-01-18T04:54:48.480Z,97921.69
2023-01-18T04:57:16.425Z,97931.78
2023-01-18T04:59:46.135Z,97934.41
2023-01-18T05:02:15.837Z,97937.13
2023-01-18T05:04:44.529Z,97942.38
2023-01-18T05:07:12.708Z,97944.63
2023-01-18T05:09:40.396Z,97945.66
2023-01-18T05:12:09.782Z,97940.09
2023-01-18T05:14:37.474Z,97947.63
2023-01-18T05:17:05.309Z,97955.22
2023-01-18T05:19:33.232Z,97968.25
2023-01-18T05:22:00.935Z,97970.81
2023-01-18T05:24:29.944Z,97977.91
2023-01-18T05:26:58.012Z,97972.91
2023-01-18T05:29:27.175Z,97980.56
2023-01-18T05:31:54.831Z,97989.25
2023-01-18T05:34:22.604Z,97991.69
2023-01-18T05:36:50.314Z,97993.34
2023-01-18T05:39:17.956Z,97994.44
2023-01-18T05:41:45.740Z,97998.88
2023-01-18T05:44:13.577Z,98010.53
2023-01-18T05:46:42.706Z,98017.97
2023-01-18T05:49:10.478Z,98019.25
2023-01-18T05:51:38.371Z,98019.97
2023-01-18T05:54:06.801Z,98020.72
2023-01-18T05:56:35.328Z,98022.53
2023-01-18T05:59:02.989Z,98025.16
2023-01-18T06:01:30.835Z,98026.22
2023-01-18T06:03:59.891Z,98028.19
2023-01-18T06:06:27.592Z,98035.91
2023-01-18T06:08:55.385Z,98041.91
2023-01-18T06:11:23.113Z,98055.06
2023-01-18T06:13:51.280Z,98064.69
2023-01-18T06:16:19.221Z,98073.41
2023-01-18T06:18:47.094Z,98071.59
2023-01-18T06:21:17.995Z,98073.22
2023-01-18T06:23:45.774Z,98075.25
2023-01-18T06:26:13.705Z,98077.03
2023-01-18T06:28:41.512Z,98081.25
2023-01-18T06:31:11.444Z,98088.84
2023-01-18T06:33:39.256Z,98091.31
2023-01-18T06:36:08.324Z,98099.16
2023-01-18T06:38:37.616Z,98095.97
2023-01-18T06:41:05.713Z,98094.50
2023-01-18T06:43:33.887Z,98102.25
2023-01-18T06:46:02.671Z,98109.09
2023-01-18T06:48:30.329Z,98111.03
2023-01-18T06:50:58.983Z,98110.69
2023-01-18T06:53:27.365Z,98130.22
2023-01-18T06:55:58.147Z,98125.19
2023-01-18T06:58:27.109Z,98130.63
2023-01-18T07:00:58.742Z,98132.88
2023-01-18T07:03:27.731Z,98143.13
2023-01-18T07:05:56.129Z,98140.03
2023-01-18T07:08:24.993Z,98143.25
2023-01-18T07:10:53.681Z,98153.50
2023-01-18T07:13:25.610Z,98150.44
2023-01-18T07:15:56.473Z,98153.88
2023-01-18T07:18:24.384Z,98159.31
2023-01-18T07:20:58.403Z,98170.69
2023-01-18T07:23:26.512Z,98168.44
2023-01-18T07:26:04.375Z,98173.72
2023-01-18T07:28:34.607Z,98169.63
2023-01-18T07:31:02.443Z,98186.34
2023-01-18T07:33:31.032Z,98190.22
2023-01-18T07:35:59.395Z,98198.22
2023-01-18T07:38:27.325Z,98208.34
2023-01-18T07:40:59.750Z,98203.75
2023-01-18T07:43:27.627Z,98211.94
2023-01-18T07:45:58.012Z,98216.09
2023-01-18T07:48:26.473Z,98218.34
2023-01-18T07:50:55.908Z,98226.03
2023-01-18T07:53:24.412Z,98228.59
2023-01-18T07:55:53.219Z,98226.66
2023-01-18T07:58:21.696Z,98233.88
2023-01-18T08:00:49.944Z,98238.56
2023-01-18T08:03:20.231Z,98239.16
2023-01-18T08:05:48.538Z,98248.50
2023-01-18T08:08:17.836Z,98253.69
2023-01-18T08:10:45.936Z,98253.97
2023-01-18T08:13:13.901Z,98257.25
2023-01-18T08:15:41.862Z,98263.78
2023-01-18T08:18:10.243Z,98261.31
2023-01-18T08:20:40.584Z,98262.78
2023-01-18T08:23:08.662Z,98263.03
2023-01-18T08:25:36.415Z,98273.03
2023-01-18T08:28:04.664Z,98278.44
2023-01-18T08:30:35.123Z,98286.00
2023-01-18T08:33:03.907Z,98293.34
2023-01-18T08:35:34.757Z,98302.44
2023-01-18T08:38:04.486Z,98302.44
2023-01-18T08:40:32.397Z,98300.97
2023-01-18T08:43:02.336Z,98312.88
2023-01-18T08:45:30.761Z,98320.44
2023-01-18T08:48:02.319Z,98324.63
2023-01-18T08:50:31.700Z,98315.22
2023-01-18T08:53:00.912Z,98319.44
2023-01-18T08:55:30.917Z,98325.69
2023-01-18T08:57:59.287Z,98325.75
2023-01-18T09:00:29.899Z,98327.47
2023-01-18T09:02:58.571Z,98328.25
2023-01-18T09:05:27.033Z,98328.13
2023-01-18T09:07:55.926Z,98329.44
2023-01-18T09:10:24.135Z,98344.28
2023-01-18T09:12:53.847Z,98343.03
2023-01-18T09:15:21.810Z,98353.22
2023-01-18T09:17:49.479Z,98356.59
2023-01-18T09:20:19.090Z,98364.41
2023-01-18T09:22:48.706Z,98361.16
2023-01-18T09:25:18.429Z,98368.53
2023-01-18T09:27:47.528Z,98371.81
2023-01-18T09:30:18.230Z,98382.72
2023-01-18T09:32:46.421Z,98388.81
2023-01-18T09:35:18.051Z,98393.50
2023-01-18T09:37:46.026Z,98402.88
2023-01-18T09:40:18.081Z,98399.53
2023-01-18T09:42:48.851Z,98412.28
2023-01-18T09:45:29.086Z,98407.38
2023-01-18T09:48:02.847Z,98415.69
2023-01-18T09:50:32.761Z,98411.63
2023-01-18T09:53:16.584Z,98420.69
2023-01-18T09:55:52.093Z,98423.16
2023-01-18T09:58:35.735Z,98420.50
2023-01-18T10:01:09.559Z,98422.00
2023-01-18T10:03:48.678Z,98421.94
2023-01-18T10:06:22.065Z,98413.72
2023-01-18T10:08:55.623Z,98420.56
2023-01-18T10:11:31.191Z,98425.25
2023-01-18T10:14:05.194Z,98421.59
2023-01-18T10:16:37.689Z,98437.28
2023-01-18T10:19:16.082Z,98435.88
2023-01-18T10:21:55.710Z,98441.94
2023-01-18T10:24:37.352Z,98438.19
2023-01-18T10:27:40.713Z,98436.81
2023-01-18T10:30:36.566Z,98447.97
2023-01-18T10:33:17.903Z,98448.53
2023-01-18T10:35:49.953Z,98440.44
2023-01-18T10:38:20.933Z,98443.72
2023-01-18T10:40:52.191Z,98452.91
2023-01-18T10:43:25.278Z,98445.22
2023-01-18T10:45:53.605Z,98451.94
2023-01-18T10:48:31.225Z,98454.22
2023-01-18T10:51:00.597Z,98456.69
2023-01-18T10:53:31.815Z,98463.41
2023-01-18T10:56:03.570Z,98463.16
2023-01-18T10:58:34.436Z,98472.50
2023-01-18T11:01:03.531Z,98464.25
2023-01-18T11:03:44.910Z,98467.50
2023-01-18T11:06:13.544Z,98475.19
2023-01-18T11:08:41.190Z,98478.78
2023-01-18T11:11:18.985Z,98464.19
2023-01-18T11:13:48.823Z,98464.69
2023-01-18T11:16:18.675Z,98465.19
2023-01-18T11:19:01.958Z,98460.94
2023-01-18T11:21:43.379Z,98470.03
2023-01-18T11:24:15.823Z,98478.53
2023-01-18T11:26:56.077Z,98466.66
2023-01-18T11:29:28.690Z,98479.84
2023-01-18T11:32:01.816Z,98485.34
2023-01-18T11:34:33.404Z,98475.19
2023-01-18T11:37:01.976Z,98480.47
2023-01-18T11:39:33.079Z,98478.94
2023-01-18T11:42:17.119Z,98486.38
2023-01-18T11:44:48.575Z,98482.72
2023-01-18T11:47:24.665Z,98487.75
2023-01-18T11:50:13.647Z,98488.09
2023-01-18T11:52:52.750Z,98479.94
2023-01-18T11:55:26.264Z,98477.91
2023-01-18T11:57:54.355Z,98486.44
2023-01-18T12:00:28.207Z,98486.31
2023-01-18T12:03:16.671Z,98485.41
2023-01-18T12:05:52.940Z,98489.44
2023-01-18T12:08:41.815Z,98496.38
2023-01-18T12:11:36.311Z,98508.16
2023-01-18T12:14:16.046Z,98506.66
2023-01-18T12:16:55.841Z,98500.16
2023-01-18T12:19:36.726Z,98513.13
2023-01-18T12:22:21.116Z,98519.88
2023-01-18T12:25:03.022Z,98510.50
2023-01-18T12:27:41.082Z,98518.72
2023-01-18T12:30:19.942Z,98519.41
2023-01-18T12:33:08.801Z,98531.50
2023-01-18T12:35:49.487Z,98531.03
2023-01-18T12:38:24.096Z,98533.16
2023-01-18T12:41:12.457Z,98532.34
2023-01-18T12:43:52.362Z,98539.25
2023-01-18T12:46:26.546Z,98539.41
2023-01-18T12:48:57.809Z,98532.13
2023-01-18T12:51:28.106Z,98544.41
2023-01-18T12:54:00.673Z,98557.16
2023-01-18T12:56:33.074Z,98545.22
2023-01-18T12:59:03.254Z,98554.97
2023-01-18T13:01:38.824Z,98546.72
2023-01-18T13:04:14.224Z,98552.63
2023-01-18T13:06:42.953Z,98560.84
2023-01-18T13:09:17.049Z,98570.56
2023-01-18T13:11:45.875Z,98567.03
2023-01-18T13:14:22.550Z,98573.13
2023-01-18T13:17:00.600Z,98573.34
2023-01-18T13:19:35.083Z,98579.41
2023-01-18T13:22:11.368Z,98591.66
2023-01-18T13:24:55.940Z,98596.88
2023-01-18T13:27:24.478Z,98598.59
2023-01-18T13:29:52.198Z,98605.19
2023-01-18T13:32:29.385Z,98602.47
2023-01-18T13:35:18.532Z,98610.34
2023-01-18T13:37:50.252Z,98612.63
2023-01-18T13:40:24.903Z,98620.63
2023-01-18T13:42:53.057Z,98620.00
2023-01-18T13:45:23.481Z,98624.84
2023-01-18T13:47:58.344Z,98630.25
2023-01-18T13:50:47.373Z,98627.16
2023-01-18T13:53:31.577Z,98632.88
2023-01-18T13:56:34.502Z,98650.88
2023-01-18T13:59:19.486Z,98651.06
2023-01-18T14:01:49.719Z,98655.66
2023-01-18T14:04:27.439Z,98654.03
2023-01-18T14:06:58.573Z,98660.09
2023-01-18T14:09:37.962Z,98660.00
2023-01-18T14:12:08.452Z,98665.59
2023-01-18T14:14:52.155Z,98669.44
2023-01-18T14:17:20.277Z,98672.84
2023-01-18T14:20:07.196Z,98684.19
2023-01-18T14:22:48.461Z,98690.22
2023-01-18T14:25:33.874Z,98692.94
2023-01-18T14:28:09.197Z,98701.41
2023-01-18T14:30:41.001Z,98706.53
2023-01-18T14:33:16.471Z,98719.34
2023-01-18T14:35:52.264Z,98712.06
2023-01-18T14:38:21.002Z,98721.50
2023-01-18T14:40:50.510Z,98726.28
2023-01-18T14:43:26.181Z,98727.13
2023-01-18T14:45:58.191Z,98734.47
2023-01-18T14:48:26.481Z,98735.25
2023-01-18T14:50:55.826Z,98746.69
2023-01-18T14:53:26.258Z,98739.03
2023-01-18T14:56:05.825Z,98749.13
2023-01-18T14:58:38.385Z,98750.16
2023-01-18T15:01:09.219Z,98753.78
2023-01-18T15:03:37.619Z,98773.72
2023-01-18T15:06:14.508Z,98774.59
2023-01-18T15:08:44.185Z,98772.69
2023-01-18T15:11:13.587Z,98776.94
2023-01-18T15:13:49.073Z,98769.13
2023-01-18T15:16:19.929Z,98782.38
2023-01-18T15:18:49.687Z,98785.94
2023-01-18T15:21:22.143Z,98798.22
2023-01-18T15:23:52.372Z,98800.81
2023-01-18T15:26:35.401Z,98807.91
2023-01-18T15:29:13.636Z,98809.09
2023-01-18T15:31:49.666Z,98805.97
2023-01-18T15:34:20.020Z,98816.53
2023-01-18T15:36:48.084Z,98820.22
2023-01-18T15:39:15.916Z,98813.31
2023-01-18T15:41:44.821Z,98805.81
2023-01-18T15:44:36.889Z,98809.59
2023-01-18T15:47:16.177Z,98816.63
2023-01-18T15:49:45.952Z,98823.91
2023-01-18T15:52:14.933Z,98827.84
2023-01-18T15:54:43.388Z,98838.47
2023-01-18T15:57:13.587Z,98839.00
2023-01-18T15:59:43.806Z,98836.72
2023-01-18T16:02:19.631Z,98842.97
2023-01-18T16:04:47.928Z,98842.41
2023-01-18T16:07:41.718Z,98854.56
2023-01-18T16:10:20.547Z,98857.47
2023-01-18T16:12:48.443Z,98867.09
2023-01-18T16:15:30.611Z,98877.63
2023-01-18T16:18:04.135Z,98881.19
2023-01-18T16:20:35.247Z,98888.97
2023-01-18T16:23:22.485Z,98889.91
2023-01-18T16:25:52.895Z,98892.38
2023-01-18T16:28:23.012Z,98903.56
2023-01-18T16:30:54.308Z,98903.69
2023-01-18T16:33:22.988Z,98912.59
2023-01-18T16:35:50.957Z,98922.75
2023-01-18T16:38:20.590Z,98929.56
2023-01-18T16:40:51.197Z,98927.00
2023-01-18T16:43:24.503Z,98929.63
2023-01-18T16:45:57.410Z,98935.56
2023-01-18T16:48:26.969Z,98929.66
2023-01-18T16:50:55.868Z,98942.53
2023-01-18T16:53:24.182Z,98945.13
2023-01-18T16:55:52.270Z,98947.69
2023-01-18T16:58:21.387Z,98947.53
2023-01-18T17:00:52.905Z,98953.44
2023-01-18T17:03:21.947Z,98952.59
2023-01-18T17:05:50.351Z,98961.13
2023-01-18T17:08:18.574Z,98948.25
2023-01-18T17:10:47.873Z,98960.03
2023-01-18T17:13:15.922Z,98954.91
2023-01-18T17:15:45.342Z,98968.59
2023-01-18T17:18:15.787Z,98974.63
2023-01-18T17:20:45.526Z,98982.44
2023-01-18T17:23:13.647Z,98983.50
2023-01-18T17:25:42.215Z,98988.84
2023-01-18T17:28:13.529Z,98990.03
2023-01-18T17:30:42.220Z,98994.16
2023-01-18T17:33:16.755Z,98992.56
2023-01-18T17:35:45.944Z,99002.00
2023-01-18T17:38:23.229Z,99006.31
2023-01-18T17:40:51.686Z,99014.03
2023-01-18T17:43:32.952Z,99002.97
2023-01-18T17:46:03.896Z,99009.84
2023-01-18T17:48:31.677Z,99017.72
2023-01-18T17:51:01.042Z,99027.41
2023-01-18T17:53:28.874Z,99033.56
2023-01-18T17:55:56.593Z,99030.25
2023-01-18T17:58:24.286Z,99036.25
2023-01-18T18:00:52.163Z,99043.06
2023-01-18T18:03:20.586Z,99048.28
2023-01-18T18:05:48.379Z,99060.25
2023-01-18T18:08:21.382Z,99058.47
2023-01-18T18:10:49.092Z,99068.63
2023-01-18T18:13:18.748Z,99073.78
2023-01-18T18:15:46.768Z,99073.72
2023-01-18T18:18:30.035Z,99080.38
2023-01-18T18:20:58.819Z,99082.75
2023-01-18T18:23:28.550Z,99091.31
2023-01-18T18:25:57.519Z,99091.28
2023-01-18T18:28:27.727Z,99096.34
2023-01-18T18:30:56.632Z,99093.84
2023-01-18T18:33:25.468Z,99091.28
2023-01-18T18:35:53.729Z,99095.50
2023-01-18T18:38:22.980Z,99094.53
2023-01-18T18:40:52.230Z,99097.19
2023-01-18T18:43:20.494Z,99100.78
2023-01-18T18:45:48.357Z,99100.84
2023-01-18T18:48:16.160Z,99103.44
2023-01-18T18:50:46.606Z,99106.94
2023-01-18T18:53:14.304Z,99108.91
2023-01-18T18:55:42.036Z,99116.66
2023-01-18T18:58:11.539Z,99116.81
2023-01-18T19:00:39.409Z,99120.28
2023-01-18T19:03:08.993Z,99131.50
2023-01-18T19:05:37.166Z,99140.00
2023-01-18T19:08:05.179Z,99146.91
2023-01-18T19:10:33.016Z,99141.03
2023-01-18T19:13:02.535Z,99150.41
2023-01-18T19:15:32.034Z,99150.41
2023-01-18T19:17:59.694Z,99153.88
2023-01-18T19:20:27.679Z,99159.88
2023-01-18T19:22:55.706Z,99164.19
2023-01-18T19:25:23.442Z,99159.09
2023-01-18T19:27:51.177Z,99164.28
2023-01-18T19:30:20.126Z,99166.00
2023-01-18T19:32:51.548Z,99171.13
2023-01-18T19:35:20.922Z,99176.16
2023-01-18T19:37:49.296Z,99176.22
2023-01-18T19:40:17.578Z,99180.41
2023-01-18T19:42:46.872Z,99179.63
2023-01-18T19:45:23.178Z,99176.28
2023-01-18T19:47:57.913Z,99190.88
2023-01-18T19:50:26.353Z,99191.81
2023-01-18T19:52:54.286Z,99192.69
2023-01-18T19:55:22.659Z,99196.91
2023-01-18T19:57:50.970Z,99193.50
2023-01-18T20:00:19.750Z,99188.38
2023-01-18T20:02:48.091Z,99196.88
2023-01-18T20:05:17.384Z,99199.34
2023-01-18T20:07:45.107Z,99205.22
2023-01-18T20:10:13.012Z,99201.69
2023-01-18T20:12:40.937Z,99204.13
2023-01-18T20:15:09.609Z,99211.66
2023-01-18T20:17:37.377Z,99205.75
2023-01-18T20:20:06.003Z,99210.06
2023-01-18T20:22:35.021Z,99210.00
2023-01-18T20:25:02.871Z,99211.66
2023-01-18T20:27:31.534Z,99226.13
2023-01-18T20:29:59.357Z,99221.88
2023-01-18T20:32:27.134Z,99229.53
2023-01-18T20:34:54.897Z,99229.56
2023-01-18T20:37:22.716Z,99238.97
2023-01-18T20:39:52.048Z,99243.25
2023-01-18T20:42:19.873Z,99238.19
2023-01-18T20:44:50.205Z,99240.75
2023-01-18T20:47:18.024Z,99250.03
2023-01-18T20:49:46.896Z,99261.03
2023-01-18T20:52:14.652Z,99250.84
2023-01-18T20:54:42.415Z,99255.94
2023-01-18T20:57:11.836Z,99250.78
2023-01-18T20:59:39.630Z,99252.44
2023-01-18T21:02:08.014Z,99264.44
2023-01-18T21:04:35.803Z,99266.25
2023-01-18T21:07:03.453Z,99269.72
2023-01-18T21:09:31.156Z,99277.53
2023-01-18T21:11:59.484Z,99279.19
2023-01-18T21:14:28.578Z,99278.28
2023-01-18T21:16:56.330Z,99283.28
2023-01-18T21:19:24.214Z,99278.19
2023-01-18T21:21:52.143Z,99279.84
2023-01-18T21:24:19.842Z,99282.53
2023-01-18T21:26:47.530Z,99282.69
2023-01-18T21:29:15.422Z,99291.28
2023-01-18T21:31:44.513Z,99289.59
2023-01-18T21:34:12.529Z,99300.66
2023-01-18T21:36:40.406Z,99299.75
2023-01-18T21:39:08.377Z,99299.75
2023-01-18T21:41:53.697Z,99293.69
2023-01-18T21:44:39.030Z,99294.69
2023-01-18T21:47:08.347Z,99291.34
2023-01-18T21:50:16.608Z,99294.84
2023-01-18T21:53:03.117Z,99308.47
2023-01-18T21:55:30.823Z,99305.03
2023-01-18T21:58:16.440Z,99313.44
2023-01-18T22:00:44.187Z,99315.94
2023-01-18T22:03:15.258Z,99317.66
2023-01-18T22:05:43.033Z,99323.78
2023-01-18T22:08:10.913Z,99317.06
2023-01-18T22:10:38.658Z,99319.66
2023-01-18T22:13:07.153Z,99323.09
2023-01-18T22:15:35.141Z,99326.47
2023-01-18T22:18:03.374Z,99322.00
2023-01-18T22:20:32.724Z,99326.97
2023-01-18T22:23:00.448Z,99325.25
2023-01-18T22:25:28.121Z,99332.81
2023-01-18T22:27:56.062Z,99329.31
2023-01-18T22:30:23.934Z,99335.22
2023-01-18T22:32:51.801Z,99343.78
2023-01-18T22:35:19.656Z,99343.00
2023-01-18T22:37:48.897Z,99349.09
2023-01-18T22:40:17.100Z,99350.91
2023-01-18T22:42:44.763Z,99352.63
2023-01-18T22:45:12.715Z,99355.91
2023-01-18T22:47:40.463Z,99356.69
2023-01-18T22:50:09.140Z,99354.81
2023-01-18T22:52:36.816Z,99353.91
2023-01-18T22:55:06.825Z,99359.78
2023-01-18T22:57:34.827Z,99362.25
2023-01-18T23:00:02.649Z,99360.53
2023-01-18T23:02:30.409Z,99354.38
2023-01-18T23:04:58.159Z,99360.28
2023-01-18T23:07:25.953Z,99362.81
2023-01-18T23:09:53.721Z,99364.63
2023-01-18T23:12:23.009Z,99376.75
2023-01-18T23:15:08.602Z,99384.34
2023-01-18T23:17:43.280Z,99377.66
2023-01-18T23:20:14.851Z,99387.09
2023-01-18T23:22:42.647Z,99386.94
2023-01-18T23:25:10.802Z,99380.97
2023-01-18T23:27:39.906Z,99386.06
2023-01-18T23:30:09.027Z,99387.81
2023-01-18T23:32:37.398Z,99387.84
2023-01-18T23:35:06.079Z,99388.03
2023-01-18T23:37:34.352Z,99383.75
2023-01-18T23:40:19.461Z,99380.25
2023-01-18T23:43:05.999Z,99389.03
2023-01-18T23:45:51.225Z,99390.97
2023-01-18T23:48:38.279Z,99397.59
2023-01-18T23:51:24.409Z,99399.22
2023-01-18T23:54:11.029Z,99400.84
2023-01-18T23:56:38.785Z,99395.59
2023-01-18T23:59:08.911Z,99398.09
